.
WxDataArchive / Data Records for 2005-12-31
2005-12-30 December 2005 2006-01-01

Data Records for Saturday, 31 December 2005

Time	Temp	Chill	HIndex	Humid	Dewpt	 Wind 	HiWind	WindDir	Rain 	Barom 
-----	----	-----	------	-----	-----	------	------	-------	-----	----- 
00:00	35.9	35.9	35.9	92	33.8	1	2	112	0.00	29.598 
00:05	35.9	35.9	35.9	92	33.8	1	3	112	0.01	29.598 
00:10	35.9	35.9	35.9	92	33.8	1	6	292	0.00	29.598 
00:15	36.0	36.0	36.0	92	33.9	1	4	248	0.00	29.596 
00:20	36.0	36.0	36.0	92	33.9	1	3	135	0.00	29.596 
00:25	36.0	36.0	36.0	92	33.9	1	3	225	0.00	29.596 
00:30	36.0	36.0	36.0	92	33.9	0	2	292	0.01	29.588 
00:35	36.0	36.0	36.0	92	33.9	0	2	0	0.00	29.588 
00:40	36.0	36.0	36.0	92	33.9	1	2	292	0.00	29.588 
00:45	36.0	36.0	36.0	92	33.9	1	3	22	0.00	29.582 
00:50	36.0	36.0	36.0	92	33.9	0	2	270	0.00	29.582 
00:55	36.0	36.0	36.0	92	33.9	0	2	270	0.00	29.582 
01:00	36.0	36.0	36.0	92	33.9	1	3	270	0.00	29.567 
01:05	36.0	36.0	36.0	92	33.9	1	2	270	0.00	29.567 
01:10	36.0	36.0	36.0	93	34.2	0	1	202	0.00	29.567 
01:15	36.0	36.0	36.0	93	34.2	0	1	202	0.00	29.564 
01:20	36.0	36.0	36.0	93	34.2	0	2	202	0.00	29.564 
01:25	36.2	36.2	36.2	93	34.4	1	2	202	0.00	29.564 
01:30	36.2	36.2	36.2	93	34.4	1	2	225	0.00	29.571 
01:35	36.2	36.2	36.2	93	34.4	1	3	248	0.00	29.571 
01:40	36.2	36.2	36.2	93	34.4	1	4	248	0.00	29.571 
01:45	36.3	36.3	36.3	93	34.5	1	2	248	0.00	29.564 
01:50	36.3	36.3	36.3	93	34.5	2	6	248	0.00	29.564 
01:55	36.5	36.5	36.5	93	34.7	2	4	248	0.00	29.564 
02:00	36.5	36.5	36.5	92	34.4	2	5	248	0.00	29.562 
02:05	36.6	36.6	36.6	92	34.5	3	7	248	0.00	29.562 
02:10	36.6	33.4	36.6	92	34.5	4	10	248	0.00	29.562 
02:15	36.6	36.6	36.6	92	34.5	3	7	248	0.00	29.565 
02:20	36.6	36.6	36.6	92	34.5	3	13	248	0.00	29.565 
02:25	36.6	36.6	36.6	91	34.2	3	9	248	0.00	29.565 
02:30	36.6	36.6	36.6	91	34.2	3	8	248	0.00	29.564 
02:35	36.6	36.6	36.6	91	34.2	3	10	248	0.00	29.564 
02:40	36.6	36.6	36.6	91	34.2	2	5	248	0.00	29.564 
02:45	36.5	36.5	36.5	91	34.1	2	4	248	0.00	29.570 
02:50	36.5	36.5	36.5	91	34.1	3	6	248	0.00	29.570 
02:55	36.5	36.5	36.5	91	34.1	3	10	248	0.00	29.570 
03:00	36.5	36.5	36.5	90	33.9	3	15	248	0.00	29.578 
03:05	36.5	36.5	36.5	90	33.9	3	9	248	0.00	29.578 
03:10	36.3	36.3	36.3	90	33.7	3	6	248	0.00	29.578 
03:15	36.3	36.3	36.3	89	33.4	3	6	248	0.00	29.579 
03:20	36.3	33.0	36.3	89	33.4	4	7	248	0.00	29.579 
03:25	36.3	36.3	36.3	89	33.4	2	4	248	0.00	29.579 
03:30	36.2	36.2	36.2	89	33.3	3	7	248	0.00	29.578 
03:35	36.2	36.2	36.2	89	33.3	2	6	248	0.00	29.578 
03:40	36.2	36.2	36.2	89	33.3	2	5	248	0.00	29.578 
03:45	36.2	36.2	36.2	89	33.3	3	6	248	0.00	29.578 
03:50	36.0	36.0	36.0	89	33.1	2	6	248	0.00	29.578 
03:55	36.0	36.0	36.0	89	33.1	3	6	248	0.00	29.578 
04:00	36.0	36.0	36.0	89	33.1	2	5	248	0.00	29.578 
04:05	36.0	36.0	36.0	89	33.1	2	4	248	0.00	29.578 
04:10	36.0	36.0	36.0	89	33.1	3	7	248	0.00	29.578 
04:15	36.0	36.0	36.0	89	33.1	3	9	248	0.00	29.574 
04:20	36.0	36.0	36.0	89	33.1	1	3	248	0.00	29.574 
04:25	35.9	35.9	35.9	89	33.0	2	5	248	0.00	29.574 
04:30	35.9	35.9	35.9	89	33.0	2	3	248	0.00	29.566 
04:35	35.9	35.9	35.9	89	33.0	2	5	248	0.00	29.566 
04:40	35.9	35.9	35.9	90	33.3	2	3	248	0.00	29.566 
04:45	36.0	36.0	36.0	90	33.4	1	4	248	0.00	29.568 
04:50	36.0	36.0	36.0	90	33.4	2	6	248	0.00	29.568 
04:55	36.0	36.0	36.0	90	33.4	2	4	248	0.00	29.568 
05:00	36.0	36.0	36.0	90	33.4	2	4	248	0.00	29.573 
05:05	36.0	36.0	36.0	90	33.4	2	6	225	0.00	29.573 
05:10	36.0	36.0	36.0	90	33.4	2	5	248	0.00	29.573 
05:15	36.2	36.2	36.2	90	33.6	2	5	248	0.00	29.576 
05:20	36.2	36.2	36.2	90	33.6	2	3	248	0.00	29.576 
05:25	36.2	36.2	36.2	90	33.6	1	3	248	0.00	29.576 
05:30	36.2	36.2	36.2	91	33.8	1	4	248	0.00	29.576 
05:35	36.2	36.2	36.2	91	33.8	2	7	248	0.00	29.576 
05:40	36.2	36.2	36.2	91	33.8	2	5	248	0.00	29.576 
05:45	36.2	36.2	36.2	91	33.8	1	4	225	0.00	29.578 
05:50	36.2	36.2	36.2	91	33.8	2	5	248	0.00	29.578 
05:55	36.2	36.2	36.2	92	34.1	2	5	248	0.00	29.578 
06:00	36.2	36.2	36.2	92	34.1	1	4	248	0.01	29.582 
06:05	36.2	36.2	36.2	92	34.1	2	5	248	0.00	29.582 
06:10	36.2	36.2	36.2	92	34.1	2	5	248	0.00	29.582 
06:15	36.3	36.3	36.3	92	34.2	2	4	248	0.00	29.588 
06:20	36.3	36.3	36.3	92	34.2	2	5	248	0.00	29.588 
06:25	36.3	36.3	36.3	92	34.2	2	5	248	0.00	29.588 
06:30	36.3	36.3	36.3	92	34.2	2	5	248	0.00	29.592 
06:35	36.3	36.3	36.3	92	34.2	3	7	248	0.00	29.592 
06:40	36.3	36.3	36.3	92	34.2	3	4	248	0.00	29.592 
06:45	36.3	36.3	36.3	92	34.2	3	4	248	0.00	29.591 
06:50	36.3	36.3	36.3	92	34.2	2	7	248	0.00	29.591 
06:55	36.3	36.3	36.3	91	33.9	3	7	248	0.00	29.591 
07:00	36.3	36.3	36.3	91	33.9	2	8	248	0.00	29.593 
07:05	36.5	36.5	36.5	91	34.1	3	9	248	0.00	29.593 
07:10	36.5	36.5	36.5	91	34.1	3	6	248	0.00	29.593 
07:15	36.5	36.5	36.5	90	33.9	3	6	248	0.00	29.593 
07:20	36.5	36.5	36.5	90	33.9	2	5	248	0.00	29.593 
07:25	36.5	36.5	36.5	90	33.9	3	10	248	0.00	29.593 
07:30	36.5	36.5	36.5	90	33.9	3	10	248	0.00	29.594 
07:35	36.5	36.5	36.5	90	33.9	3	11	248	0.01	29.594 
07:40	36.3	33.0	36.3	90	33.7	4	9	248	0.00	29.594 
07:45	36.0	36.0	36.0	90	33.4	3	10	270	0.00	29.601 
07:50	35.6	32.2	35.6	89	32.7	4	11	270	0.01	29.601 
07:55	35.5	35.5	35.5	89	32.6	2	5	248	0.00	29.601 
08:00	35.3	35.3	35.3	89	32.4	3	6	270	0.00	29.609 
08:05	35.0	35.0	35.0	89	32.1	2	5	248	0.00	29.609 
08:10	34.9	34.9	34.9	90	32.3	1	3	248	0.00	29.609 
08:15	34.7	34.7	34.7	91	32.3	2	7	248	0.00	29.611 
08:20	34.7	34.7	34.7	90	32.1	3	7	248	0.00	29.611 
08:25	34.9	31.4	34.9	90	32.3	4	9	270	0.00	29.611 
08:30	34.9	34.9	34.9	90	32.3	3	6	248	0.00	29.613 
08:35	34.9	34.9	34.9	90	32.3	2	7	248	0.01	29.613 
08:40	34.7	34.7	34.7	90	32.1	2	5	248	0.00	29.613 
08:45	34.7	34.7	34.7	90	32.1	2	4	248	0.00	29.617 
08:50	34.7	34.7	34.7	90	32.1	2	5	248	0.00	29.617 
08:55	34.7	34.7	34.7	90	32.1	3	7	248	0.00	29.617 
09:00	34.7	34.7	34.7	89	31.8	2	5	248	0.00	29.623 
09:05	34.7	34.7	34.7	90	32.1	1	3	248	0.00	29.623 
09:10	34.7	34.7	34.7	90	32.1	2	6	248	0.00	29.623 
09:15	34.7	34.7	34.7	89	31.8	2	6	248	0.00	29.629 
09:20	34.7	31.2	34.7	89	31.8	4	11	248	0.00	29.629 
09:25	34.7	31.2	34.7	89	31.8	4	12	248	0.00	29.629 
09:30	34.7	34.7	34.7	89	31.8	3	10	248	0.00	29.638 
09:35	34.7	31.2	34.7	88	31.5	4	10	248	0.00	29.638 
09:40	34.7	31.2	34.7	89	31.8	4	10	270	0.00	29.638 
09:45	34.6	31.1	34.6	89	31.7	4	13	270	0.00	29.646 
09:50	34.6	31.1	34.6	89	31.7	4	11	248	0.00	29.646 
09:55	34.4	34.4	34.4	90	31.8	3	10	248	0.00	29.646 
10:00	34.4	34.4	34.4	89	31.5	3	11	270	0.00	29.649 
10:05	34.4	34.4	34.4	89	31.5	3	9	248	0.00	29.649 
10:10	34.3	34.3	34.3	89	31.4	3	11	270	0.00	29.649 
10:15	34.3	34.3	34.3	90	31.7	3	9	248	0.00	29.657 
10:20	34.3	34.3	34.3	90	31.7	3	9	270	0.00	29.657 
10:25	34.1	34.1	34.1	91	31.8	3	11	248	0.00	29.657 
10:30	34.1	34.1	34.1	91	31.8	3	10	270	0.00	29.661 
10:35	34.1	34.1	34.1	91	31.8	3	9	248	0.00	29.661 
10:40	34.1	34.1	34.1	91	31.8	3	10	248	0.00	29.661 
10:45	34.1	34.1	34.1	91	31.8	2	4	248	0.00	29.662 
10:50	34.1	34.1	34.1	92	32.0	3	6	248	0.00	29.662 
10:55	34.1	30.5	34.1	91	31.8	4	6	270	0.00	29.662 
11:00	34.3	30.7	34.3	90	31.7	4	10	270	0.00	29.661 
11:05	34.4	30.8	34.4	89	31.5	4	11	270	0.00	29.661 
11:10	34.6	31.1	34.6	89	31.7	4	11	248	0.00	29.661 
11:15	34.6	31.1	34.6	89	31.7	4	11	270	0.00	29.664 
11:20	34.6	31.1	34.6	89	31.7	4	10	270	0.00	29.664 
11:25	34.6	30.1	34.6	88	31.4	5	12	270	0.00	29.664 
11:30	34.6	34.6	34.6	89	31.7	3	9	248	0.00	29.664 
11:35	34.6	29.3	34.6	88	31.4	6	12	270	0.00	29.664 
11:40	34.7	30.2	34.7	88	31.5	5	11	270	0.00	29.664 
11:45	34.7	30.2	34.7	88	31.5	5	15	270	0.00	29.662 
11:50	34.6	31.1	34.6	89	31.7	4	14	248	0.00	29.662 
11:55	34.6	31.1	34.6	89	31.7	4	11	270	0.00	29.662 
12:00	34.6	29.3	34.6	89	31.7	6	15	248	0.00	29.665 
12:05	34.6	30.1	34.6	89	31.7	5	14	248	0.00	29.665 
12:10	34.6	34.6	34.6	89	31.7	3	11	270	0.00	29.665 
12:15	34.6	31.1	34.6	89	31.7	4	10	270	0.00	29.669 
12:20	34.6	30.1	34.6	89	31.7	5	12	270	0.00	29.669 
12:25	34.6	30.1	34.6	88	31.4	5	16	270	0.00	29.669 
12:30	34.7	31.2	34.7	89	31.8	4	13	248	0.00	29.675 
12:35	34.7	31.2	34.7	89	31.8	4	12	270	0.00	29.675 
12:40	34.7	31.2	34.7	89	31.8	4	11	270	0.00	29.675 
12:45	34.7	30.2	34.7	89	31.8	5	14	248	0.00	29.677 
12:50	34.7	31.2	34.7	90	32.1	4	11	270	0.00	29.677 
12:55	34.7	31.2	34.7	89	31.8	4	12	270	0.00	29.677 
13:00	34.6	30.1	34.6	90	32.0	5	13	270	0.00	29.678 
13:05	34.7	31.2	34.7	90	32.1	4	10	270	0.00	29.678 
13:10	34.6	31.1	34.6	90	32.0	4	11	270	0.00	29.678 
13:15	34.6	31.1	34.6	90	32.0	4	13	270	0.00	29.680 
13:20	34.7	31.2	34.7	90	32.1	4	12	270	0.00	29.680 
13:25	34.7	31.2	34.7	90	32.1	4	10	270	0.00	29.680 
13:30	34.6	31.1	34.6	90	32.0	4	12	270	0.00	29.679 
13:35	34.7	34.7	34.7	90	32.1	3	7	270	0.00	29.679 
13:40	34.7	34.7	34.7	90	32.1	3	7	270	0.00	29.679 
13:45	34.7	34.7	34.7	90	32.1	3	9	270	0.00	29.687 
13:50	34.9	31.4	34.9	90	32.3	4	10	270	0.00	29.687 
13:55	34.9	34.9	34.9	89	32.0	3	9	270	0.00	29.687 
14:00	35.0	31.5	35.0	88	31.8	4	12	270	0.00	29.693 
14:05	35.3	31.9	35.3	87	31.8	4	13	248	0.00	29.693 
14:10	35.3	31.9	35.3	86	31.5	4	11	248	0.00	29.693 
14:15	35.5	35.5	35.5	86	31.7	3	6	270	0.00	29.702 
14:20	35.5	32.1	35.5	85	31.4	4	11	270	0.00	29.702 
14:25	35.5	31.2	35.5	85	31.4	5	12	270	0.00	29.702 
14:30	35.6	32.2	35.6	85	31.5	4	12	270	0.00	29.707 
14:35	35.6	35.6	35.6	85	31.5	3	7	270	0.00	29.707 
14:40	35.6	32.2	35.6	85	31.5	4	10	270	0.00	29.707 
14:45	35.6	32.2	35.6	85	31.5	4	11	248	0.00	29.715 
14:50	35.5	35.5	35.5	86	31.7	3	7	270	0.00	29.715 
14:55	35.5	35.5	35.5	87	32.0	3	7	270	0.00	29.715 
15:00	35.3	35.3	35.3	87	31.8	3	6	270	0.00	29.719 
15:05	35.3	35.3	35.3	88	32.1	3	10	270	0.00	29.719 
15:10	35.3	35.3	35.3	88	32.1	3	7	270	0.00	29.719 
15:15	35.3	35.3	35.3	88	32.1	2	6	270	0.00	29.723 
15:20	35.5	35.5	35.5	87	32.0	3	7	248	0.00	29.723 
15:25	35.6	35.6	35.6	86	31.8	3	10	248	0.00	29.723 
15:30	35.8	32.5	35.8	85	31.7	4	11	270	0.00	29.733 
15:35	35.8	35.8	35.8	85	31.7	3	7	270	0.00	29.733 
15:40	35.9	35.9	35.9	85	31.8	2	6	270	0.00	29.733 
15:45	35.9	32.6	35.9	84	31.5	4	9	248	0.00	29.741 
15:50	35.9	35.9	35.9	85	31.8	2	5	270	0.00	29.741 
15:55	35.9	35.9	35.9	85	31.8	3	6	270	0.00	29.741 
16:00	35.9	35.9	35.9	85	31.8	3	9	248	0.00	29.752 
16:05	35.8	35.8	35.8	86	32.0	3	9	248	0.00	29.752 
16:10	35.8	35.8	35.8	86	32.0	2	6	248	0.00	29.752 
16:15	35.8	32.5	35.8	86	32.0	4	13	248	0.00	29.756 
16:20	35.8	35.8	35.8	87	32.3	2	6	270	0.00	29.756 
16:25	35.8	35.8	35.8	87	32.3	3	7	248	0.00	29.756 
16:30	35.8	35.8	35.8	87	32.3	2	6	248	0.00	29.767 
16:35	35.6	35.6	35.6	87	32.1	3	9	248	0.00	29.767 
16:40	35.6	35.6	35.6	88	32.4	2	6	248	0.00	29.767 
16:45	35.6	35.6	35.6	87	32.1	3	6	270	0.00	29.768 
16:50	35.6	35.6	35.6	87	32.1	3	8	248	0.00	29.768 
16:55	35.6	35.6	35.6	87	32.1	3	11	270	0.00	29.768 
17:00	35.6	35.6	35.6	87	32.1	3	9	248	0.00	29.773 
17:05	35.6	35.6	35.6	87	32.1	2	6	248	0.00	29.773 
17:10	35.5	35.5	35.5	87	32.0	2	5	248	0.00	29.773 
17:15	35.5	35.5	35.5	88	32.3	2	5	248	0.00	29.775 
17:20	35.5	35.5	35.5	88	32.3	3	6	248	0.00	29.775 
17:25	35.5	35.5	35.5	88	32.3	3	5	248	0.01	29.775 
17:30	35.5	35.5	35.5	88	32.3	3	7	248	0.00	29.781 
17:35	35.5	35.5	35.5	88	32.3	3	11	248	0.00	29.781 
17:40	35.5	32.1	35.5	87	32.0	4	9	248	0.00	29.781 
17:45	35.5	35.5	35.5	88	32.3	3	8	270	0.00	29.786 
17:50	35.5	32.1	35.5	87	32.0	4	7	248	0.00	29.786 
17:55	35.5	35.5	35.5	87	32.0	3	6	248	0.00	29.786 
18:00	35.5	35.5	35.5	88	32.3	3	5	248	0.00	29.793 
18:05	35.5	35.5	35.5	87	32.0	3	8	270	0.00	29.793 
18:10	35.5	35.5	35.5	88	32.3	2	7	248	0.00	29.793 
18:15	35.5	35.5	35.5	88	32.3	1	3	248	0.00	29.797 
18:20	35.5	35.5	35.5	88	32.3	3	7	248	0.00	29.797 
18:25	35.5	35.5	35.5	88	32.3	3	6	248	0.00	29.797 
18:30	35.5	35.5	35.5	87	32.0	3	9	248	0.00	29.800 
18:35	35.5	35.5	35.5	87	32.0	3	10	248	0.00	29.800 
18:40	35.5	35.5	35.5	87	32.0	3	7	248	0.00	29.800 
18:45	35.5	35.5	35.5	87	32.0	3	8	248	0.00	29.809 
18:50	35.5	32.1	35.5	86	31.7	4	11	248	0.00	29.809 
18:55	35.5	32.1	35.5	86	31.7	4	10	248	0.00	29.809 
19:00	35.5	35.5	35.5	86	31.7	3	9	248	0.00	29.815 
19:05	35.5	32.1	35.5	86	31.7	4	10	270	0.00	29.815 
19:10	35.5	35.5	35.5	86	31.7	3	6	270	0.00	29.815 
19:15	35.3	35.3	35.3	86	31.5	2	5	270	0.00	29.821 
19:20	35.3	35.3	35.3	86	31.5	2	6	248	0.00	29.821 
19:25	35.3	35.3	35.3	86	31.5	2	5	248	0.00	29.821 
19:30	35.3	35.3	35.3	85	31.2	2	5	248	0.00	29.826 
19:35	35.3	35.3	35.3	86	31.5	2	4	225	0.00	29.826 
19:40	35.3	35.3	35.3	85	31.2	2	6	248	0.00	29.826 
19:45	35.3	35.3	35.3	85	31.2	2	7	248	0.00	29.832 
19:50	35.3	35.3	35.3	85	31.2	3	7	248	0.00	29.832 
19:55	35.3	35.3	35.3	85	31.2	2	6	248	0.00	29.832 
20:00	35.3	35.3	35.3	85	31.2	3	9	248	0.00	29.836 
20:05	35.3	35.3	35.3	85	31.2	2	4	270	0.00	29.836 
20:10	35.3	35.3	35.3	85	31.2	2	4	248	0.00	29.836 
20:15	35.2	35.2	35.2	85	31.2	2	7	248	0.00	29.840 
20:20	35.2	35.2	35.2	85	31.2	2	6	248	0.00	29.840 
20:25	35.2	35.2	35.2	85	31.2	2	4	248	0.00	29.840 
20:30	35.2	35.2	35.2	85	31.2	2	5	248	0.00	29.834 
20:35	35.2	35.2	35.2	85	31.2	2	6	248	0.00	29.834 
20:40	35.0	35.0	35.0	85	31.0	1	4	248	0.00	29.834 
20:45	35.0	35.0	35.0	85	31.0	2	6	248	0.00	29.832 
20:50	35.0	35.0	35.0	85	31.0	2	5	248	0.00	29.832 
20:55	35.0	35.0	35.0	85	31.0	2	6	248	0.00	29.832 
21:00	35.0	35.0	35.0	85	31.0	2	5	248	0.00	29.840 
21:05	35.0	35.0	35.0	85	31.0	2	4	248	0.00	29.840 
21:10	35.0	35.0	35.0	85	31.0	3	6	248	0.00	29.840 
21:15	35.0	35.0	35.0	85	31.0	3	7	248	0.00	29.851 
21:20	35.0	35.0	35.0	85	31.0	3	9	248	0.00	29.851 
21:25	35.0	35.0	35.0	85	31.0	3	11	248	0.00	29.851 
21:30	35.0	35.0	35.0	85	31.0	2	6	248	0.00	29.852 
21:35	35.0	35.0	35.0	85	31.0	3	6	248	0.00	29.852 
21:40	34.9	34.9	34.9	85	30.9	3	6	248	0.00	29.852 
21:45	34.9	34.9	34.9	84	30.6	2	6	270	0.00	29.857 
21:50	34.9	34.9	34.9	84	30.6	3	7	248	0.00	29.857 
21:55	34.9	34.9	34.9	85	30.9	3	6	248	0.00	29.857 
22:00	34.9	34.9	34.9	84	30.6	2	5	248	0.00	29.866 
22:05	34.9	34.9	34.9	84	30.6	2	7	248	0.00	29.866 
22:10	34.9	34.9	34.9	85	30.9	2	6	248	0.00	29.866 
22:15	34.9	34.9	34.9	84	30.6	3	7	270	0.00	29.876 
22:20	34.9	34.9	34.9	84	30.6	3	9	248	0.00	29.876 
22:25	34.9	34.9	34.9	84	30.6	3	7	248	0.00	29.876 
22:30	34.9	31.4	34.9	84	30.6	4	9	248	0.00	29.880 
22:35	34.9	31.4	34.9	84	30.6	4	9	248	0.00	29.880 
22:40	34.7	34.7	34.7	84	30.4	3	7	248	0.00	29.880 
22:45	34.7	31.2	34.7	84	30.4	4	9	248	0.00	29.882 
22:50	34.7	34.7	34.7	85	30.7	2	6	248	0.00	29.882 
22:55	34.6	34.6	34.6	85	30.6	3	9	248	0.00	29.882 
23:00	34.6	34.6	34.6	84	30.3	3	9	248	0.00	29.869 
23:05	34.6	34.6	34.6	85	30.6	3	6	248	0.00	29.869 
23:10	34.4	34.4	34.4	84	30.1	3	7	248	0.00	29.869 
23:15	34.4	34.4	34.4	84	30.1	2	5	248	0.00	29.878 
23:20	34.3	34.3	34.3	84	30.0	2	6	248	0.00	29.878 
23:25	34.3	34.3	34.3	84	30.0	2	7	248	0.00	29.878 
23:30	34.3	34.3	34.3	84	30.0	3	6	248	0.00	29.892 
23:35	34.3	34.3	34.3	85	30.3	2	5	248	0.00	29.892 
23:40	34.3	34.3	34.3	85	30.3	3	7	248	0.00	29.892 
23:45	34.3	34.3	34.3	85	30.3	3	5	248	0.00	29.895 
23:50	34.1	34.1	34.1	85	30.1	2	5	248	0.00	29.895 
23:55	34.1	34.1	34.1	85	30.1	3	5	248	0.00	29.895 

CoCoRaHS
IN-AL-39
A2 Web Hosting
Creative Commons License
GoDaddy
Look for:

loaded 2017-12-12 07:28:12 • last modified 2010-11-18 10:43:29
Privacy PolicyDisclaimer
• wx.awcolley.com is powered by PmWiki v.2002016 •
• all content (unless otherwise noted) © 2017 A W Colley